sensor_id;sensor_type;location;lat;lon;timestamp;temperature;humidity
54485;DHT22;45006;56.958;24.166;2023-04-01T00:01:27;22.80;68.70
54485;DHT22;45006;56.958;24.166;2023-04-01T00:03:54;22.80;68.70
54485;DHT22;45006;56.958;24.166;2023-04-01T00:06:23;22.80;68.70
54485;DHT22;45006;56.958;24.166;2023-04-01T00:08:50;22.80;68.70
54485;DHT22;45006;56.958;24.166;2023-04-01T00:11:17;22.90;68.80
54485;DHT22;45006;56.958;24.166;2023-04-01T00:13:46;22.90;68.80
54485;DHT22;45006;56.958;24.166;2023-04-01T00:16:13;22.80;68.70
54485;DHT22;45006;56.958;24.166;2023-04-01T00:18:49;22.90;68.60
54485;DHT22;45006;56.958;24.166;2023-04-01T00:21:17;22.90;68.70
54485;DHT22;45006;56.958;24.166;2023-04-01T00:23:44;22.90;68.70
54485;DHT22;45006;56.958;24.166;2023-04-01T00:26:11;22.90;68.60
54485;DHT22;45006;56.958;24.166;2023-04-01T00:28:39;22.90;68.70
54485;DHT22;45006;56.958;24.166;2023-04-01T00:31:07;22.90;68.60
54485;DHT22;45006;56.958;24.166;2023-04-01T00:33:35;22.90;68.70
54485;DHT22;45006;56.958;24.166;2023-04-01T00:36:13;22.90;68.70
54485;DHT22;45006;56.958;24.166;2023-04-01T00:38:41;22.90;68.70
54485;DHT22;45006;56.958;24.166;2023-04-01T00:41:10;22.90;68.70
54485;DHT22;45006;56.958;24.166;2023-04-01T00:43:44;22.90;68.60
54485;DHT22;45006;56.958;24.166;2023-04-01T00:46:13;22.90;68.70
54485;DHT22;45006;56.958;24.166;2023-04-01T00:48:45;22.90;68.70
54485;DHT22;45006;56.958;24.166;2023-04-01T00:51:32;22.90;68.70
54485;DHT22;45006;56.958;24.166;2023-04-01T00:53:59;22.90;68.70
54485;DHT22;45006;56.958;24.166;2023-04-01T00:56:35;22.90;68.60
54485;DHT22;45006;56.958;24.166;2023-04-01T00:59:10;22.90;68.60
54485;DHT22;45006;56.958;24.166;2023-04-01T01:01:38;22.90;68.60
54485;DHT22;45006;56.958;24.166;2023-04-01T01:04:06;22.90;68.60
54485;DHT22;45006;56.958;24.166;2023-04-01T01:06:48;22.90;68.60
54485;DHT22;45006;56.958;24.166;2023-04-01T01:09:29;22.90;68.60
54485;DHT22;45006;56.958;24.166;2023-04-01T01:12:16;22.90;68.70
54485;DHT22;45006;56.958;24.166;2023-04-01T01:18:05;22.90;68.60
54485;DHT22;45006;56.958;24.166;2023-04-01T01:20:33;22.90;69.20
54485;DHT22;45006;56.958;24.166;2023-04-01T01:36:48;22.90;68.60
54485;DHT22;45006;56.958;24.166;2023-04-01T01:39:17;22.90;68.50
54485;DHT22;45006;56.958;24.166;2023-04-01T01:41:46;22.90;68.50
54485;DHT22;45006;56.958;24.166;2023-04-01T01:44:16;22.90;68.50
54485;DHT22;45006;56.958;24.166;2023-04-01T01:46:44;22.90;68.40
54485;DHT22;45006;56.958;24.166;2023-04-01T01:49:13;22.90;68.40
54485;DHT22;45006;56.958;24.166;2023-04-01T01:51:41;22.90;68.40
54485;DHT22;45006;56.958;24.166;2023-04-01T01:54:14;22.90;68.30
54485;DHT22;45006;56.958;24.166;2023-04-01T01:56:44;22.90;68.30
54485;DHT22;45006;56.958;24.166;2023-04-01T01:59:12;22.90;68.30
54485;DHT22;45006;56.958;24.166;2023-04-01T02:01:43;22.90;68.30
54485;DHT22;45006;56.958;24.166;2023-04-01T02:04:14;22.90;68.40
54485;DHT22;45006;56.958;24.166;2023-04-01T02:07:20;22.90;68.30
54485;DHT22;45006;56.958;24.166;2023-04-01T02:09:38;22.90;68.30
54485;DHT22;45006;56.958;24.166;2023-04-01T02:12:07;22.90;68.30
54485;DHT22;45006;56.958;24.166;2023-04-01T02:14:52;22.90;68.30
54485;DHT22;45006;56.958;24.166;2023-04-01T02:17:26;22.90;68.30
54485;DHT22;45006;56.958;24.166;2023-04-01T02:19:59;22.90;68.30
54485;DHT22;45006;56.958;24.166;2023-04-01T02:22:29;22.90;68.90
54485;DHT22;45006;56.958;24.166;2023-04-01T02:25:05;22.90;68.30
54485;DHT22;45006;56.958;24.166;2023-04-01T02:27:33;22.90;68.30
54485;DHT22;45006;56.958;24.166;2023-04-01T02:30:00;22.90;68.20
54485;DHT22;45006;56.958;24.166;2023-04-01T02:32:28;22.90;68.50
54485;DHT22;45006;56.958;24.166;2023-04-01T02:34:56;22.90;68.20
54485;DHT22;45006;56.958;24.166;2023-04-01T02:37:23;22.90;68.20
54485;DHT22;45006;56.958;24.166;2023-04-01T02:39:50;22.90;68.30
54485;DHT22;45006;56.958;24.166;2023-04-01T02:42:17;22.90;68.30
54485;DHT22;45006;56.958;24.166;2023-04-01T02:44:44;22.90;68.30
54485;DHT22;45006;56.958;24.166;2023-04-01T02:47:11;22.90;68.30
54485;DHT22;45006;56.958;24.166;2023-04-01T02:49:39;22.90;68.30
54485;DHT22;45006;56.958;24.166;2023-04-01T02:52:06;22.90;68.30
54485;DHT22;45006;56.958;24.166;2023-04-01T02:54:34;22.90;68.30
54485;DHT22;45006;56.958;24.166;2023-04-01T02:57:02;22.90;68.30
54485;DHT22;45006;56.958;24.166;2023-04-01T02:59:29;22.90;68.30
54485;DHT22;45006;56.958;24.166;2023-04-01T03:01:56;22.90;68.30
54485;DHT22;45006;56.958;24.166;2023-04-01T03:04:23;22.90;68.30
54485;DHT22;45006;56.958;24.166;2023-04-01T03:06:50;22.90;68.30
54485;DHT22;45006;56.958;24.166;2023-04-01T03:09:18;22.90;68.30
54485;DHT22;45006;56.958;24.166;2023-04-01T03:11:44;22.90;68.20
54485;DHT22;45006;56.958;24.166;2023-04-01T03:14:11;22.90;68.30
54485;DHT22;45006;56.958;24.166;2023-04-01T03:16:38;22.90;68.30
54485;DHT22;45006;56.958;24.166;2023-04-01T03:19:06;22.90;68.20
54485;DHT22;45006;56.958;24.166;2023-04-01T03:21:32;22.90;68.20
54485;DHT22;45006;56.958;24.166;2023-04-01T03:24:00;22.90;68.20
54485;DHT22;45006;56.958;24.166;2023-04-01T03:26:28;22.90;68.20
54485;DHT22;45006;56.958;24.166;2023-04-01T03:28:56;22.90;68.20
54485;DHT22;45006;56.958;24.166;2023-04-01T03:31:23;22.90;68.20
54485;DHT22;45006;56.958;24.166;2023-04-01T03:33:51;22.90;68.20
54485;DHT22;45006;56.958;24.166;2023-04-01T03:36:18;22.90;68.10
54485;DHT22;45006;56.958;24.166;2023-04-01T03:38:46;22.90;68.10
54485;DHT22;45006;56.958;24.166;2023-04-01T03:41:14;22.90;68.30
54485;DHT22;45006;56.958;24.166;2023-04-01T03:43:42;22.90;68.00
54485;DHT22;45006;56.958;24.166;2023-04-01T03:46:10;22.80;68.00
54485;DHT22;45006;56.958;24.166;2023-04-01T03:48:37;22.90;68.10
54485;DHT22;45006;56.958;24.166;2023-04-01T03:51:08;22.90;68.10
54485;DHT22;45006;56.958;24.166;2023-04-01T03:53:36;22.90;68.20
54485;DHT22;45006;56.958;24.166;2023-04-01T03:56:05;22.90;68.10
54485;DHT22;45006;56.958;24.166;2023-04-01T03:58:34;22.80;68.10
54485;DHT22;45006;56.958;24.166;2023-04-01T04:01:02;22.90;68.30
54485;DHT22;45006;56.958;24.166;2023-04-01T04:03:29;22.90;68.10
54485;DHT22;45006;56.958;24.166;2023-04-01T04:05:58;22.90;68.10
54485;DHT22;45006;56.958;24.166;2023-04-01T04:08:26;22.90;68.10
54485;DHT22;45006;56.958;24.166;2023-04-01T04:10:56;22.90;68.00
54485;DHT22;45006;56.958;24.166;2023-04-01T04:13:23;22.90;68.00
54485;DHT22;45006;56.958;24.166;2023-04-01T04:15:50;22.90;68.00
54485;DHT22;45006;56.958;24.166;2023-04-01T04:18:17;22.90;68.00
54485;DHT22;45006;56.958;24.166;2023-04-01T04:20:47;22.90;68.00
54485;DHT22;45006;56.958;24.166;2023-04-01T04:23:18;22.90;68.00
54485;DHT22;45006;56.958;24.166;2023-04-01T04:25:56;22.90;68.10
54485;DHT22;45006;56.958;24.166;2023-04-01T04:28:24;22.90;68.00
54485;DHT22;45006;56.958;24.166;2023-04-01T04:30:52;22.90;68.00
54485;DHT22;45006;56.958;24.166;2023-04-01T04:33:20;22.90;68.00
54485;DHT22;45006;56.958;24.166;2023-04-01T04:35:47;22.90;68.00
54485;DHT22;45006;56.958;24.166;2023-04-01T04:38:14;22.90;68.00
54485;DHT22;45006;56.958;24.166;2023-04-01T04:40:42;22.90;68.00
54485;DHT22;45006;56.958;24.166;2023-04-01T04:43:11;22.90;68.10
54485;DHT22;45006;56.958;24.166;2023-04-01T04:45:39;22.90;68.00
54485;DHT22;45006;56.958;24.166;2023-04-01T04:48:10;22.90;68.00
54485;DHT22;45006;56.958;24.166;2023-04-01T04:50:40;22.90;68.00
54485;DHT22;45006;56.958;24.166;2023-04-01T04:53:09;22.90;68.00
54485;DHT22;45006;56.958;24.166;2023-04-01T04:55:37;22.90;68.00
54485;DHT22;45006;56.958;24.166;2023-04-01T04:58:04;22.90;68.00
54485;DHT22;45006;56.958;24.166;2023-04-01T05:00:31;22.90;68.00
54485;DHT22;45006;56.958;24.166;2023-04-01T05:02:59;22.90;68.00
54485;DHT22;45006;56.958;24.166;2023-04-01T05:05:26;22.90;68.00
54485;DHT22;45006;56.958;24.166;2023-04-01T05:07:53;22.90;68.00
54485;DHT22;45006;56.958;24.166;2023-04-01T05:10:21;22.90;68.60
54485;DHT22;45006;56.958;24.166;2023-04-01T05:12:48;22.90;68.00
54485;DHT22;45006;56.958;24.166;2023-04-01T05:15:15;22.90;67.80
54485;DHT22;45006;56.958;24.166;2023-04-01T05:17:43;22.90;67.90
54485;DHT22;45006;56.958;24.166;2023-04-01T05:20:12;22.90;67.90
54485;DHT22;45006;56.958;24.166;2023-04-01T05:22:39;22.90;67.90
54485;DHT22;45006;56.958;24.166;2023-04-01T05:25:07;22.90;67.80
54485;DHT22;45006;56.958;24.166;2023-04-01T05:27:34;22.90;67.90
54485;DHT22;45006;56.958;24.166;2023-04-01T05:30:02;22.90;68.00
54485;DHT22;45006;56.958;24.166;2023-04-01T05:32:32;22.90;68.00
54485;DHT22;45006;56.958;24.166;2023-04-01T05:34:59;22.90;68.00
54485;DHT22;45006;56.958;24.166;2023-04-01T05:37:26;22.90;68.00
54485;DHT22;45006;56.958;24.166;2023-04-01T05:39:52;22.90;68.00
54485;DHT22;45006;56.958;24.166;2023-04-01T05:42:21;22.90;68.00
54485;DHT22;45006;56.958;24.166;2023-04-01T05:44:48;22.90;68.00
54485;DHT22;45006;56.958;24.166;2023-04-01T05:47:15;22.90;68.00
54485;DHT22;45006;56.958;24.166;2023-04-01T05:49:42;22.90;68.00
54485;DHT22;45006;56.958;24.166;2023-04-01T05:52:08;22.90;68.00
54485;DHT22;45006;56.958;24.166;2023-04-01T05:54:36;22.90;67.90
54485;DHT22;45006;56.958;24.166;2023-04-01T05:57:03;22.90;67.90
54485;DHT22;45006;56.958;24.166;2023-04-01T05:59:30;22.90;67.90
54485;DHT22;45006;56.958;24.166;2023-04-01T06:01:58;22.90;67.90
54485;DHT22;45006;56.958;24.166;2023-04-01T06:04:31;22.90;67.80
54485;DHT22;45006;56.958;24.166;2023-04-01T06:06:59;22.90;67.80
54485;DHT22;45006;56.958;24.166;2023-04-01T06:09:27;22.90;67.90
54485;DHT22;45006;56.958;24.166;2023-04-01T06:31:20;22.90;68.00
54485;DHT22;45006;56.958;24.166;2023-04-01T06:52:23;22.90;68.00
54485;DHT22;45006;56.958;24.166;2023-04-01T06:55:12;22.90;68.00
54485;DHT22;45006;56.958;24.166;2023-04-01T06:57:45;22.90;68.10
54485;DHT22;45006;56.958;24.166;2023-04-01T07:00:30;22.90;68.20
54485;DHT22;45006;56.958;24.166;2023-04-01T07:03:13;22.90;68.20
54485;DHT22;45006;56.958;24.166;2023-04-01T07:05:43;22.90;68.30
54485;DHT22;45006;56.958;24.166;2023-04-01T07:08:16;22.90;68.30
54485;DHT22;45006;56.958;24.166;2023-04-01T07:10:50;22.90;68.20
54485;DHT22;45006;56.958;24.166;2023-04-01T07:13:27;22.90;68.30
54485;DHT22;45006;56.958;24.166;2023-04-01T07:18:40;22.90;68.20
54485;DHT22;45006;56.958;24.166;2023-04-01T07:21:25;22.90;68.10
54485;DHT22;45006;56.958;24.166;2023-04-01T07:23:54;22.90;68.00
54485;DHT22;45006;56.958;24.166;2023-04-01T07:26:24;22.90;68.10
54485;DHT22;45006;56.958;24.166;2023-04-01T07:28:52;22.90;68.00
54485;DHT22;45006;56.958;24.166;2023-04-01T07:31:37;22.90;68.10
54485;DHT22;45006;56.958;24.166;2023-04-01T07:36:54;22.90;68.00
54485;DHT22;45006;56.958;24.166;2023-04-01T07:40:07;22.90;68.00
54485;DHT22;45006;56.958;24.166;2023-04-01T07:45:27;22.90;67.80
54485;DHT22;45006;56.958;24.166;2023-04-01T07:48:11;22.90;67.80
54485;DHT22;45006;56.958;24.166;2023-04-01T07:56:07;22.90;67.60
54485;DHT22;45006;56.958;24.166;2023-04-01T07:59:05;22.90;67.50
54485;DHT22;45006;56.958;24.166;2023-04-01T08:07:59;22.90;67.30
54485;DHT22;45006;56.958;24.166;2023-04-01T08:10:49;22.90;67.30
54485;DHT22;45006;56.958;24.166;2023-04-01T08:13:34;22.80;67.40
54485;DHT22;45006;56.958;24.166;2023-04-01T08:21:52;22.90;67.40
54485;DHT22;45006;56.958;24.166;2023-04-01T08:24:33;22.80;67.30
54485;DHT22;45006;56.958;24.166;2023-04-01T08:27:26;22.90;67.30
54485;DHT22;45006;56.958;24.166;2023-04-01T08:30:04;22.90;67.30
54485;DHT22;45006;56.958;24.166;2023-04-01T08:32:37;22.90;67.30
54485;DHT22;45006;56.958;24.166;2023-04-01T08:35:20;22.80;67.30
54485;DHT22;45006;56.958;24.166;2023-04-01T08:37:50;22.80;67.30
54485;DHT22;45006;56.958;24.166;2023-04-01T08:40:26;22.80;67.20
54485;DHT22;45006;56.958;24.166;2023-04-01T08:48:42;22.80;67.00
54485;DHT22;45006;56.958;24.166;2023-04-01T08:57:11;22.80;66.90
54485;DHT22;45006;56.958;24.166;2023-04-01T09:21:01;22.80;66.50
54485;DHT22;45006;56.958;24.166;2023-04-01T09:32:39;22.80;66.20
54485;DHT22;45006;56.958;24.166;2023-04-01T09:38:11;22.80;66.10
54485;DHT22;45006;56.958;24.166;2023-04-01T10:03:31;22.80;65.80
54485;DHT22;45006;56.958;24.166;2023-04-01T10:36:56;22.70;65.30
54485;DHT22;45006;56.958;24.166;2023-04-01T10:39:32;22.70;65.30
54485;DHT22;45006;56.958;24.166;2023-04-01T10:51:33;22.70;65.20
54485;DHT22;45006;56.958;24.166;2023-04-01T10:54:03;22.70;65.30
54485;DHT22;45006;56.958;24.166;2023-04-01T11:27:28;22.70;65.10
54485;DHT22;45006;56.958;24.166;2023-04-01T11:33:04;22.70;65.10
54485;DHT22;45006;56.958;24.166;2023-04-01T11:35:48;22.70;65.20
54485;DHT22;45006;56.958;24.166;2023-04-01T11:44:20;22.70;65.30
54485;DHT22;45006;56.958;24.166;2023-04-01T11:50:36;22.70;65.30
54485;DHT22;45006;56.958;24.166;2023-04-01T12:01:56;22.70;65.20
54485;DHT22;45006;56.958;24.166;2023-04-01T12:04:44;22.70;65.20
54485;DHT22;45006;56.958;24.166;2023-04-01T12:10:20;22.70;65.20
54485;DHT22;45006;56.958;24.166;2023-04-01T12:18:31;22.70;65.90
54485;DHT22;45006;56.958;24.166;2023-04-01T12:37:53;22.70;64.70
54485;DHT22;45006;56.958;24.166;2023-04-01T12:55:07;22.70;64.50
54485;DHT22;45006;56.958;24.166;2023-04-01T13:17:53;22.60;64.10
54485;DHT22;45006;56.958;24.166;2023-04-01T13:20:54;22.60;64.00
54485;DHT22;45006;56.958;24.166;2023-04-01T13:36:52;22.60;63.60
54485;DHT22;45006;56.958;24.166;2023-04-01T13:42:56;22.60;63.50
54485;DHT22;45006;56.958;24.166;2023-04-01T13:45:29;22.50;63.50
54485;DHT22;45006;56.958;24.166;2023-04-01T13:50:59;22.50;63.50
54485;DHT22;45006;56.958;24.166;2023-04-01T13:59:29;22.50;63.60
54485;DHT22;45006;56.958;24.166;2023-04-01T14:13:50;22.50;63.80
54485;DHT22;45006;56.958;24.166;2023-04-01T14:16:46;22.50;64.00
54485;DHT22;45006;56.958;24.166;2023-04-01T14:22:26;22.50;63.90
54485;DHT22;45006;56.958;24.166;2023-04-01T14:28:03;22.50;64.10
54485;DHT22;45006;56.958;24.166;2023-04-01T14:31:15;22.50;64.00
54485;DHT22;45006;56.958;24.166;2023-04-01T14:37:01;22.50;64.10
54485;DHT22;45006;56.958;24.166;2023-04-01T14:48:07;22.50;64.30
54485;DHT22;45006;56.958;24.166;2023-04-01T14:50:45;22.50;64.30
54485;DHT22;45006;56.958;24.166;2023-04-01T14:55:56;22.50;64.30
54485;DHT22;45006;56.958;24.166;2023-04-01T14:58:47;22.50;64.30
54485;DHT22;45006;56.958;24.166;2023-04-01T15:15:45;22.50;64.50
54485;DHT22;45006;56.958;24.166;2023-04-01T15:26:47;22.50;64.70
54485;DHT22;45006;56.958;24.166;2023-04-01T15:29:51;22.50;65.90
54485;DHT22;45006;56.958;24.166;2023-04-01T15:35:43;22.50;65.60
54485;DHT22;45006;56.958;24.166;2023-04-01T15:41:21;22.50;66.00
54485;DHT22;45006;56.958;24.166;2023-04-01T15:43:50;22.50;66.20
54485;DHT22;45006;56.958;24.166;2023-04-01T15:46:46;22.50;66.40
54485;DHT22;45006;56.958;24.166;2023-04-01T15:52:11;22.50;66.40
54485;DHT22;45006;56.958;24.166;2023-04-01T16:00:56;22.50;66.60
54485;DHT22;45006;56.958;24.166;2023-04-01T16:03:49;22.50;66.50
54485;DHT22;45006;56.958;24.166;2023-04-01T16:22:53;22.50;66.90
54485;DHT22;45006;56.958;24.166;2023-04-01T16:28:48;22.50;66.80
54485;DHT22;45006;56.958;24.166;2023-04-01T16:34:17;22.40;66.20
54485;DHT22;45006;56.958;24.166;2023-04-01T16:37:17;22.40;66.20
54485;DHT22;45006;56.958;24.166;2023-04-01T16:40:12;22.40;66.30
54485;DHT22;45006;56.958;24.166;2023-04-01T16:46:26;22.40;66.50
54485;DHT22;45006;56.958;24.166;2023-04-01T16:57:01;22.40;66.60
54485;DHT22;45006;56.958;24.166;2023-04-01T17:04:48;22.40;66.70
54485;DHT22;45006;56.958;24.166;2023-04-01T17:10:37;22.40;66.70
54485;DHT22;45006;56.958;24.166;2023-04-01T17:27:01;22.40;66.90
54485;DHT22;45006;56.958;24.166;2023-04-01T17:35:09;22.30;66.40
54485;DHT22;45006;56.958;24.166;2023-04-01T17:45:53;22.30;65.80
54485;DHT22;45006;56.958;24.166;2023-04-01T17:53:57;22.30;66.20
54485;DHT22;45006;56.958;24.166;2023-04-01T17:56:54;22.30;66.30
54485;DHT22;45006;56.958;24.166;2023-04-01T17:59:37;22.30;66.50
54485;DHT22;45006;56.958;24.166;2023-04-01T18:02:46;22.30;66.50
54485;DHT22;45006;56.958;24.166;2023-04-01T18:05:51;22.30;66.70
54485;DHT22;45006;56.958;24.166;2023-04-01T18:22:44;22.30;67.10
54485;DHT22;45006;56.958;24.166;2023-04-01T18:28:25;22.30;67.00
54485;DHT22;45006;56.958;24.166;2023-04-01T18:31:09;22.30;67.10
54485;DHT22;45006;56.958;24.166;2023-04-01T18:42:06;22.30;66.30
54485;DHT22;45006;56.958;24.166;2023-04-01T18:45:01;22.30;66.50
54485;DHT22;45006;56.958;24.166;2023-04-01T18:50:37;22.30;66.90
54485;DHT22;45006;56.958;24.166;2023-04-01T18:55:59;22.30;67.00
54485;DHT22;45006;56.958;24.166;2023-04-01T18:58:36;22.30;67.30
54485;DHT22;45006;56.958;24.166;2023-04-01T19:01:34;22.30;67.30
54485;DHT22;45006;56.958;24.166;2023-04-01T19:07:17;22.30;67.60
54485;DHT22;45006;56.958;24.166;2023-04-01T19:09:48;22.30;67.60
54485;DHT22;45006;56.958;24.166;2023-04-01T19:12:25;22.30;67.60
54485;DHT22;45006;56.958;24.166;2023-04-01T19:18:08;22.30;67.70
54485;DHT22;45006;56.958;24.166;2023-04-01T19:20:57;22.30;67.90
54485;DHT22;45006;56.958;24.166;2023-04-01T19:23:45;22.30;67.90
54485;DHT22;45006;56.958;24.166;2023-04-01T19:26:22;22.30;68.00
54485;DHT22;45006;56.958;24.166;2023-04-01T19:37:40;22.30;69.20
54485;DHT22;45006;56.958;24.166;2023-04-01T19:43:14;22.30;70.30
54485;DHT22;45006;56.958;24.166;2023-04-01T19:45:54;22.40;69.90
54485;DHT22;45006;56.958;24.166;2023-04-01T19:48:38;22.40;69.00
54485;DHT22;45006;56.958;24.166;2023-04-01T19:57:00;22.40;67.60
54485;DHT22;45006;56.958;24.166;2023-04-01T19:59:36;22.40;67.20
54485;DHT22;45006;56.958;24.166;2023-04-01T20:04:53;22.40;66.70
54485;DHT22;45006;56.958;24.166;2023-04-01T20:07:42;22.50;66.80
54485;DHT22;45006;56.958;24.166;2023-04-01T20:12:52;22.50;66.40
54485;DHT22;45006;56.958;24.166;2023-04-01T20:15:43;22.50;66.30
54485;DHT22;45006;56.958;24.166;2023-04-01T20:18:25;22.50;66.30
54485;DHT22;45006;56.958;24.166;2023-04-01T20:20:58;22.50;65.70
54485;DHT22;45006;56.958;24.166;2023-04-01T20:23:34;22.50;66.30
54485;DHT22;45006;56.958;24.166;2023-04-01T20:26:11;22.50;66.20
54485;DHT22;45006;56.958;24.166;2023-04-01T20:31:36;22.50;66.60
54485;DHT22;45006;56.958;24.166;2023-04-01T20:34:20;22.50;66.70
54485;DHT22;45006;56.958;24.166;2023-04-01T20:37:20;22.50;66.90
54485;DHT22;45006;56.958;24.166;2023-04-01T20:40:26;22.50;67.10
54485;DHT22;45006;56.958;24.166;2023-04-01T20:51:31;22.50;67.50
54485;DHT22;45006;56.958;24.166;2023-04-01T20:57:14;22.50;67.70
54485;DHT22;45006;56.958;24.166;2023-04-01T21:07:50;22.50;68.80
54485;DHT22;45006;56.958;24.166;2023-04-01T21:10:50;22.50;69.10
54485;DHT22;45006;56.958;24.166;2023-04-01T21:18:59;22.50;69.30
54485;DHT22;45006;56.958;24.166;2023-04-01T21:21:57;22.60;69.60
54485;DHT22;45006;56.958;24.166;2023-04-01T21:27:47;22.60;70.40
54485;DHT22;45006;56.958;24.166;2023-04-01T21:58:21;22.70;70.80
54485;DHT22;45006;56.958;24.166;2023-04-01T22:03:59;22.70;71.50
54485;DHT22;45006;56.958;24.166;2023-04-01T22:09:39;22.70;71.30
54485;DHT22;45006;56.958;24.166;2023-04-01T22:12:25;22.70;71.60
54485;DHT22;45006;56.958;24.166;2023-04-01T22:20:27;22.70;71.60
54485;DHT22;45006;56.958;24.166;2023-04-01T22:23:11;22.80;71.80
54485;DHT22;45006;56.958;24.166;2023-04-01T22:31:12;22.80;71.90
54485;DHT22;45006;56.958;24.166;2023-04-01T22:34:01;22.80;72.10
54485;DHT22;45006;56.958;24.166;2023-04-01T22:52:32;22.80;72.80
54485;DHT22;45006;56.958;24.166;2023-04-01T22:55:09;22.80;73.00
54485;DHT22;45006;56.958;24.166;2023-04-01T22:57:53;22.80;73.00
54485;DHT22;45006;56.958;24.166;2023-04-01T23:00:38;22.80;73.00
54485;DHT22;45006;56.958;24.166;2023-04-01T23:05:57;22.80;73.10
54485;DHT22;45006;56.958;24.166;2023-04-01T23:11:22;22.90;73.50
54485;DHT22;45006;56.958;24.166;2023-04-01T23:17:17;22.90;73.60
54485;DHT22;45006;56.958;24.166;2023-04-01T23:22:34;22.90;73.80
54485;DHT22;45006;56.958;24.166;2023-04-01T23:28:13;22.90;73.20
54485;DHT22;45006;56.958;24.166;2023-04-01T23:33:21;22.90;73.90
54485;DHT22;45006;56.958;24.166;2023-04-01T23:38:37;22.90;73.40
54485;DHT22;45006;56.958;24.166;2023-04-01T23:41:06;22.90;73.50
54485;DHT22;45006;56.958;24.166;2023-04-01T23:43:37;22.80;73.20
54485;DHT22;45006;56.958;24.166;2023-04-01T23:46:07;22.80;73.10
54485;DHT22;45006;56.958;24.166;2023-04-01T23:51:02;22.90;73.20
54485;DHT22;45006;56.958;24.166;2023-04-01T23:53:33;22.90;73.10
54485;DHT22;45006;56.958;24.166;2023-04-01T23:56:02;22.90;73.10
54485;DHT22;45006;56.958;24.166;2023-04-01T23:58:49;22.90;73.00
